Time;durP1;ratioP1;P1;durP2;ratioP2;P2;SDS_P1;SDS_P2;PMS_P1;PMS_P2;Temp;Humidity;BMP_temperature;BMP_pressure;BME280_temperature;BME280_humidity;BME280_pressure;Samples;Min_cycle;Max_cycle;Signal;HPM_P1;HPM_P2
2022/03/22 00:01:00;;;;;;;10.50;9.40;;;;;;;-0.60;100.00;98547.50;5010852;28;20293;-56
2022/03/22 00:03:29;;;;;;;10.87;9.27;;;;;;;-0.78;100.00;98529.28;5022393;28;20265;-58
2022/03/22 00:05:58;;;;;;;11.97;9.97;;;;;;;-0.62;100.00;98547.56;5028733;28;20200;-52
2022/03/22 00:08:26;;;;;;;11.70;9.83;;;;;;;-0.71;100.00;98537.63;5017587;28;20397;-53
2022/03/22 00:10:54;;;;;;;9.13;8.33;;;;;;;-0.58;100.00;98548.25;4985371;28;20208;-52
2022/03/22 00:13:22;;;;;;;9.40;8.40;;;;;;;-0.53;100.00;98546.25;5023416;28;20522;-52
2022/03/22 00:15:50;;;;;;;9.63;8.73;;;;;;;-0.48;100.00;98543.41;5009565;28;20591;-51
2022/03/22 00:18:40;;;;;;;9.93;8.40;;;;;;;-0.39;100.00;98539.47;5016262;28;20538;-53
2022/03/22 00:21:08;;;;;;;8.97;8.07;;;;;;;-0.32;100.00;98543.44;5026986;28;20596;-52
2022/03/22 00:23:37;;;;;;;9.00;8.10;;;;;;;-0.38;100.00;98544.59;5024530;28;20398;-51
2022/03/22 00:26:05;;;;;;;8.83;8.03;;;;;;;-0.46;100.00;98541.56;4986584;28;20215;-55
2022/03/22 00:28:33;;;;;;;11.37;8.10;;;;;;;-0.38;100.00;98539.41;5023019;28;20235;-54
2022/03/22 00:31:02;;;;;;;10.53;8.47;;;;;;;-0.26;100.00;98544.88;5033687;28;20433;-50
2022/03/22 00:33:31;;;;;;;9.50;7.93;;;;;;;-0.35;100.00;98547.03;5005078;28;20215;-54
2022/03/22 00:36:00;;;;;;;8.57;7.70;;;;;;;-0.27;100.00;98545.78;5025153;28;21014;-54
2022/03/22 00:38:28;;;;;;;9.63;7.87;;;;;;;-0.20;100.00;98545.38;5019220;28;20350;-55
2022/03/22 00:40:58;;;;;;;8.10;7.23;;;;;;;-0.32;100.00;98553.88;5023791;28;20726;-53
2022/03/22 00:43:26;;;;;;;10.30;8.47;;;;;;;-0.42;100.00;98550.91;4984207;28;20279;-56
2022/03/22 00:45:55;;;;;;;8.53;7.70;;;;;;;-0.35;100.00;98551.44;5025048;28;20238;-52
2022/03/22 00:48:23;;;;;;;8.60;7.70;;;;;;;-0.48;100.00;98557.25;5008020;28;20235;-57
2022/03/22 00:50:52;;;;;;;8.77;7.97;;;;;;;-0.38;100.00;98551.56;5024922;28;20208;-55
2022/03/22 00:53:21;;;;;;;7.97;7.07;;;;;;;-0.55;100.00;98553.31;5029349;28;20246;-57
2022/03/22 00:55:50;;;;;;;8.77;7.90;;;;;;;-0.39;100.00;98550.75;5027521;28;20496;-54
2022/03/22 00:58:18;;;;;;;8.83;7.70;;;;;;;-0.45;100.00;98551.06;4985296;28;20399;-56
2022/03/22 01:00:48;;;;;;;8.80;7.23;;;;;;;-0.53;100.00;98555.84;5021538;28;20843;-55
2022/03/22 01:03:17;;;;;;;9.87;8.87;;;;;;;-0.67;100.00;98546.97;5027297;28;20235;-57
2022/03/22 01:05:45;;;;;;;8.80;7.93;;;;;;;-0.66;100.00;98550.44;4983597;28;20535;-55
2022/03/22 01:08:14;;;;;;;8.60;7.70;;;;;;;-0.69;100.00;98553.19;5025308;28;20224;-53
2022/03/22 01:10:51;;;;;;;9.30;8.10;;;;;;;-0.63;100.00;98550.25;5021640;28;20204;-58
2022/03/22 01:13:22;;;;;;;9.30;8.30;;;;;;;-0.56;100.00;98537.78;5019450;28;20268;-53
2022/03/22 01:15:50;;;;;;;9.37;8.23;;;;;;;-0.47;100.00;98543.31;4967943;28;20212;-53
2022/03/22 01:18:19;;;;;;;8.77;7.87;;;;;;;-0.40;100.00;98550.81;5025716;28;20984;-52
2022/03/22 01:20:49;;;;;;;8.43;7.23;;;;;;;-0.60;100.00;98547.50;4984641;28;20200;-53
2022/03/22 01:23:19;;;;;;;10.60;8.13;;;;;;;-0.66;100.00;98553.03;5026585;28;20335;-55
2022/03/22 01:25:48;;;;;;;9.27;8.37;;;;;;;-0.68;100.00;98540.06;5026491;28;20309;-54
2022/03/22 01:28:17;;;;;;;10.10;9.00;;;;;;;-0.61;100.00;98549.25;5026953;28;20224;-50
2022/03/22 01:30:46;;;;;;;8.93;8.13;;;;;;;-0.63;100.00;98532.88;4985477;28;20658;-54
2022/03/22 01:33:14;;;;;;;9.17;7.83;;;;;;;-0.78;100.00;98538.88;5020954;28;20317;-55
2022/03/22 01:35:43;;;;;;;14.50;9.23;;;;;;;-0.75;100.00;98534.38;4986585;28;20286;-52
2022/03/22 01:38:11;;;;;;;10.87;9.77;;;;;;;-0.84;100.00;98527.00;5023882;28;20317;-53
2022/03/22 01:40:39;;;;;;;9.33;8.53;;;;;;;-0.95;100.00;98535.34;5022782;28;20255;-53
2022/03/22 01:43:09;;;;;;;11.37;9.90;;;;;;;-0.96;100.00;98532.84;5021770;28;20444;-57
2022/03/22 01:45:38;;;;;;;11.33;10.17;;;;;;;-1.07;100.00;98531.66;4977209;28;20217;-53
2022/03/22 01:48:06;;;;;;;11.80;10.13;;;;;;;-1.18;100.00;98537.38;5021561;28;20211;-51
2022/03/22 01:50:37;;;;;;;14.10;10.07;;;;;;;-1.37;100.00;98536.59;5007050;28;20201;-55
2022/03/22 01:53:06;;;;;;;14.50;11.47;;;;;;;-1.38;100.00;98537.50;5024623;28;20418;-53
2022/03/22 01:55:34;;;;;;;12.63;9.43;;;;;;;-1.45;100.00;98531.78;5025493;28;20339;-52
2022/03/22 01:58:03;;;;;;;9.60;8.80;;;;;;;-1.62;100.00;98519.59;5013203;28;20404;-53
2022/03/22 02:00:32;;;;;;;10.60;9.60;;;;;;;-1.73;100.00;98525.31;4982327;28;20345;-50
2022/03/22 02:05:55;;;;;;;10.63;9.53;;;;;;;-1.87;100.00;98523.38;5020890;28;20692;-54
2022/03/22 02:08:26;;;;;;;11.40;9.77;;;;;;;-2.00;100.00;98520.50;5022593;28;20224;-57
2022/03/22 02:10:56;;;;;;;10.50;9.40;;;;;;;-2.06;100.00;98513.84;5024192;28;20235;-53
2022/03/22 02:13:24;;;;;;;12.80;9.90;;;;;;;-2.07;100.00;98511.31;5025216;28;20215;-55
2022/03/22 02:15:55;;;;;;;11.90;10.70;;;;;;;-2.04;100.00;98501.63;4977423;28;20297;-54
2022/03/22 02:18:25;;;;;;;10.60;9.53;;;;;;;-2.25;100.00;98503.47;5031013;28;20322;-54
2022/03/22 02:20:54;;;;;;;11.80;9.67;;;;;;;-2.29;100.00;98508.88;5012333;28;20212;-52
2022/03/22 02:23:27;;;;;;;12.03;9.43;;;;;;;-2.24;100.00;98506.91;5021626;28;20208;-52
2022/03/22 02:25:56;;;;;;;11.20;9.77;;;;;;;-2.41;100.00;98507.66;5022893;28;20232;-52
2022/03/22 02:28:24;;;;;;;12.13;9.17;;;;;;;-2.50;100.00;98501.13;5028501;28;20536;-48
2022/03/22 02:30:53;;;;;;;12.20;9.47;;;;;;;-2.37;100.00;98499.69;4975817;28;20591;-52
2022/03/22 02:33:21;;;;;;;13.23;9.83;;;;;;;-2.34;100.00;98502.13;5022634;28;20231;-52
2022/03/22 02:35:49;;;;;;;12.93;10.43;;;;;;;-2.44;100.00;98500.03;5025786;28;20395;-56
2022/03/22 02:38:18;;;;;;;16.40;10.53;;;;;;;-2.51;100.00;98504.63;5004072;28;20224;-52
2022/03/22 02:40:46;;;;;;;11.90;10.20;;;;;;;-2.55;100.00;98505.69;5020604;28;20204;-55
2022/03/22 02:43:16;;;;;;;10.27;9.20;;;;;;;-2.53;100.00;98507.31;5026264;28;20707;-51
2022/03/22 02:45:44;;;;;;;12.13;10.20;;;;;;;-2.42;100.00;98495.59;4975929;28;20836;-50
2022/03/22 02:48:12;;;;;;;11.37;9.90;;;;;;;-2.45;100.00;98496.59;5028747;28;20301;-54
2022/03/22 02:50:41;;;;;;;11.87;10.43;;;;;;;-2.43;100.00;98499.97;5020845;28;20577;-52
2022/03/22 02:53:09;;;;;;;10.53;9.17;;;;;;;-2.51;100.00;98515.03;5004590;28;20662;-55
2022/03/22 02:55:37;;;;;;;11.03;9.90;;;;;;;-2.52;100.00;98510.75;5020232;28;20282;-52
2022/03/22 02:58:05;;;;;;;10.67;9.37;;;;;;;-2.56;100.00;98511.78;5024593;28;21065;-54
2022/03/22 03:00:36;;;;;;;12.20;10.00;;;;;;;-2.49;100.00;98519.25;4996467;28;20299;-52
2022/03/22 03:03:04;;;;;;;11.77;10.43;;;;;;;-2.48;100.00;98515.75;5017277;28;20223;-57
2022/03/22 03:05:34;;;;;;;12.23;10.60;;;;;;;-2.57;100.00;98521.34;5025042;28;20204;-52
2022/03/22 03:08:02;;;;;;;10.43;9.30;;;;;;;-2.59;100.00;98522.31;5004328;28;20212;-56
2022/03/22 03:10:31;;;;;;;10.10;8.60;;;;;;;-2.56;100.00;98528.22;5024350;28;20208;-54
2022/03/22 03:13:00;;;;;;;13.63;10.03;;;;;;;-2.58;100.00;98532.63;5023023;28;20464;-57
2022/03/22 03:15:28;;;;;;;12.20;9.20;;;;;;;-2.67;100.00;98533.03;5025373;28;20261;-55
2022/03/22 03:17:58;;;;;;;12.07;10.77;;;;;;;-2.66;100.00;98540.75;4977208;28;20481;-54
2022/03/22 03:20:26;;;;;;;10.63;9.57;;;;;;;-2.77;100.00;98528.25;5021936;28;20231;-52
2022/03/22 03:22:54;;;;;;;20.73;10.90;;;;;;;-2.69;100.00;98530.50;5024216;28;20623;-57
2022/03/22 03:25:23;;;;;;;13.03;10.33;;;;;;;-2.80;100.00;98535.34;5003537;28;20261;-55
2022/03/22 03:27:51;;;;;;;12.60;10.13;;;;;;;-2.74;100.00;98540.25;5020701;28;20208;-56
2022/03/22 03:30:19;;;;;;;11.47;9.90;;;;;;;-2.73;100.00;98538.47;5026414;28;20211;-55
2022/03/22 03:32:48;;;;;;;11.33;10.13;;;;;;;-2.84;100.00;98537.22;4978762;28;21162;-52
2022/03/22 03:35:17;;;;;;;11.70;10.33;;;;;;;-2.81;100.00;98542.25;5022435;28;20620;-53
2022/03/22 03:37:46;;;;;;;11.87;10.67;;;;;;;-2.81;100.00;98546.63;5024145;28;20255;-56
2022/03/22 03:40:14;;;;;;;11.63;10.53;;;;;;;-2.85;100.00;98542.44;5009777;28;20721;-54
2022/03/22 03:42:46;;;;;;;13.60;10.53;;;;;;;-3.03;100.00;98547.53;5028721;28;20708;-54
2022/03/22 03:48:00;;;;;;;12.43;10.83;;;;;;;-3.02;100.00;98541.44;5025828;28;20289;-56
2022/03/22 03:50:31;;;;;;;10.80;9.70;;;;;;;-3.01;100.00;98537.94;4979412;28;20239;-53
2022/03/22 03:52:59;;;;;;;14.53;11.13;;;;;;;-2.97;100.00;98541.25;5026619;28;20207;-56
2022/03/22 03:55:27;;;;;;;14.77;10.57;;;;;;;-3.03;100.00;98550.13;5008880;28;20487;-52
2022/03/22 03:57:56;;;;;;;12.40;11.10;;;;;;;-3.04;100.00;98535.47;5025994;28;20423;-53
2022/03/22 04:00:24;;;;;;;12.70;10.23;;;;;;;-3.03;100.00;98534.56;5028439;28;20269;-53
2022/03/22 04:02:53;;;;;;;13.83;10.97;;;;;;;-3.11;100.00;98531.44;5029797;28;20825;-55
2022/03/22 04:05:22;;;;;;;12.97;11.67;;;;;;;-3.17;100.00;98536.91;4984165;28;20292;-53
2022/03/22 04:07:54;;;;;;;10.77;9.67;;;;;;;-3.17;100.00;98537.72;5024870;28;20843;-53
2022/03/22 04:10:22;;;;;;;12.87;10.03;;;;;;;-3.25;100.00;98539.81;5012044;28;20214;-52
2022/03/22 04:12:50;;;;;;;13.67;11.47;;;;;;;-3.19;100.00;98539.53;4999277;28;20235;-54
2022/03/22 04:15:19;;;;;;;11.20;9.53;;;;;;;-3.39;100.00;98527.41;5025576;28;20204;-56
2022/03/22 04:17:48;;;;;;;11.40;10.03;;;;;;;-3.40;100.00;98541.28;5007905;28;20246;-54
2022/03/22 04:20:17;;;;;;;12.73;11.43;;;;;;;-3.53;100.00;98541.78;4986140;28;20475;-54
2022/03/22 04:22:45;;;;;;;13.87;10.63;;;;;;;-3.40;100.00;98541.28;5026294;28;20452;-52
2022/03/22 04:25:15;;;;;;;11.57;10.20;;;;;;;-3.35;100.00;98541.91;5013921;28;20239;-55
2022/03/22 04:33:15;;;;;;;16.13;14.50;;;;;;;-3.30;100.00;98542.56;5005846;28;20464;-52
2022/03/22 04:35:43;;;;;;;11.87;10.57;;;;;;;-3.32;100.00;98541.78;4979529;28;20231;-58
2022/03/22 04:38:12;;;;;;;12.23;10.03;;;;;;;-3.52;100.00;98537.44;5025240;28;20330;-56
2022/03/22 04:40:41;;;;;;;13.37;10.27;;;;;;;-3.60;100.00;98529.94;4994493;28;20638;-52
2022/03/22 04:43:09;;;;;;;11.50;9.33;;;;;;;-3.57;100.00;98539.38;5028027;28;20716;-53
2022/03/22 04:45:37;;;;;;;12.00;10.03;;;;;;;-3.64;100.00;98539.63;5008023;28;20207;-54
2022/03/22 04:48:06;;;;;;;13.43;10.70;;;;;;;-3.68;100.00;98539.78;5025312;28;20235;-55
2022/03/22 04:50:34;;;;;;;11.73;10.57;;;;;;;-3.63;100.00;98540.44;4986329;28;20349;-53
2022/03/22 04:58:35;;;;;;;13.60;10.40;;;;;;;-3.74;100.00;98548.66;5006271;28;20412;-53
2022/03/22 05:01:04;;;;;;;11.77;10.67;;;;;;;-3.63;100.00;98545.63;5014166;28;20282;-53
2022/03/22 05:03:33;;;;;;;11.97;10.13;;;;;;;-3.71;100.00;98550.28;5022776;28;20234;-52
2022/03/22 05:08:46;;;;;;;11.47;9.57;;;;;;;-3.69;100.00;98556.22;5025853;28;20753;-57
2022/03/22 05:11:16;;;;;;;13.80;9.87;;;;;;;-3.73;100.00;98552.06;5015818;28;20680;-54
2022/03/22 05:13:44;;;;;;;10.77;9.67;;;;;;;-3.67;100.00;98557.00;5019171;28;20203;-50
2022/03/22 05:16:12;;;;;;;10.77;9.67;;;;;;;-3.79;100.00;98547.97;5011123;28;20203;-55
2022/03/22 05:18:40;;;;;;;13.37;9.57;;;;;;;-3.72;100.00;98569.31;5024660;28;20227;-53
2022/03/22 05:21:09;;;;;;;11.47;10.27;;;;;;;-3.67;100.00;98554.41;5022858;28;20686;-52
2022/03/22 05:23:38;;;;;;;11.63;10.53;;;;;;;-3.70;100.00;98563.19;5000394;28;20200;-54
2022/03/22 05:26:06;;;;;;;12.57;10.37;;;;;;;-3.67;100.00;98565.66;5028135;28;20294;-58
2022/03/22 05:28:37;;;;;;;11.83;10.00;;;;;;;-3.65;100.00;98561.25;5008355;28;20223;-55
2022/03/22 05:31:05;;;;;;;11.37;9.10;;;;;;;-3.66;100.00;98566.47;5022616;28;20288;-54
2022/03/22 05:33:33;;;;;;;12.80;10.13;;;;;;;-3.48;100.00;98562.31;5007598;28;20196;-54
2022/03/22 05:36:01;;;;;;;10.90;9.80;;;;;;;-3.43;100.00;98562.97;5027482;28;20667;-54
2022/03/22 05:38:29;;;;;;;11.37;10.07;;;;;;;-3.42;100.00;98564.66;4992211;28;20223;-54
2022/03/22 05:40:57;;;;;;;10.87;9.87;;;;;;;-3.38;100.00;98565.38;5021036;28;20214;-54
2022/03/22 05:43:26;;;;;;;12.07;10.03;;;;;;;-3.38;100.00;98553.28;5007974;28;20195;-55
2022/03/22 05:45:55;;;;;;;11.87;10.00;;;;;;;-3.26;100.00;98567.47;5026382;28;20544;-55
2022/03/22 05:48:24;;;;;;;11.27;10.17;;;;;;;-3.21;100.00;98567.28;5005331;28;20886;-52
2022/03/22 05:50:52;;;;;;;10.53;9.23;;;;;;;-2.97;100.00;98568.00;5025066;28;20290;-51
2022/03/22 05:53:21;;;;;;;11.13;9.50;;;;;;;-2.84;100.00;98565.75;4993260;28;20309;-55
2022/03/22 05:55:49;;;;;;;10.93;9.23;;;;;;;-2.81;100.00;98568.19;5025642;28;20483;-54
2022/03/22 05:58:17;;;;;;;11.27;10.07;;;;;;;-2.63;100.00;98573.53;5023746;28;20220;-53
2022/03/22 06:00:46;;;;;;;10.63;9.47;;;;;;;-2.29;100.00;98572.00;5007283;28;20644;-48
2022/03/22 06:03:16;;;;;;;12.77;9.73;;;;;;;-1.63;100.00;98572.50;5008106;28;20210;-51
2022/03/22 06:05:44;;;;;;;12.17;10.00;;;;;;;0.47;100.00;98569.63;5022447;28;20493;-52
2022/03/22 06:08:12;;;;;;;10.50;9.50;;;;;;;1.86;100.00;98568.50;5012001;28;20750;-54
2022/03/22 06:10:41;;;;;;;11.73;8.97;;;;;;;2.52;100.00;98563.50;5005599;28;20468;-56
2022/03/22 06:13:09;;;;;;;11.97;9.17;;;;;;;1.38;100.00;98564.38;5021864;28;20241;-53
2022/03/22 06:15:38;;;;;;;12.50;9.30;;;;;;;0.52;100.00;98571.03;4991293;28;20270;-54
2022/03/22 06:18:09;;;;;;;10.60;9.60;;;;;;;-0.19;100.00;98585.28;5009269;28;20259;-55
2022/03/22 06:20:40;;;;;;;11.20;9.60;;;;;;;-0.39;100.00;98583.75;5008182;28;20212;-55
2022/03/22 06:23:11;;;;;;;10.73;9.67;;;;;;;-0.55;100.00;98578.50;5025081;28;20200;-54
2022/03/22 06:25:40;;;;;;;10.87;9.53;;;;;;;-0.79;100.00;98590.06;4983709;28;20266;-53
2022/03/22 06:28:09;;;;;;;10.53;9.00;;;;;;;-0.78;100.00;98585.72;5024356;28;20262;-55
2022/03/22 06:30:38;;;;;;;12.13;10.83;;;;;;;-0.84;100.00;98584.25;5004235;28;20854;-51
2022/03/22 06:33:12;;;;;;;12.10;9.83;;;;;;;-0.90;100.00;98593.25;5023272;28;20750;-52
2022/03/22 06:35:43;;;;;;;12.50;10.40;;;;;;;-0.74;100.00;98595.06;4997622;28;20334;-53
2022/03/22 06:38:11;;;;;;;11.87;9.37;;;;;;;-0.80;100.00;98592.78;5017993;28;20327;-50
2022/03/22 06:40:40;;;;;;;10.60;9.47;;;;;;;-0.71;100.00;98600.09;4986096;28;20368;-53
2022/03/22 06:43:14;;;;;;;10.90;9.53;;;;;;;-0.47;100.00;98597.19;5018264;28;20263;-52
2022/03/22 06:45:43;;;;;;;10.90;9.70;;;;;;;-0.43;100.00;98593.50;5021503;28;20231;-53
2022/03/22 06:48:12;;;;;;;10.67;8.53;;;;;;;-0.27;100.00;98592.69;5004244;28;20243;-56
2022/03/22 06:50:42;;;;;;;12.20;9.90;;;;;;;-0.09;100.00;98589.13;4997522;28;20473;-52
2022/03/22 06:53:11;;;;;;;10.93;9.17;;;;;;;0.04;100.00;98591.06;5023881;28;20204;-50
2022/03/22 06:55:39;;;;;;;11.50;9.60;;;;;;;0.17;100.00;98597.28;4984352;28;20226;-52
2022/03/22 06:58:07;;;;;;;10.00;8.63;;;;;;;0.30;100.00;98599.22;5023105;28;20250;-53
2022/03/22 07:00:36;;;;;;;10.73;9.77;;;;;;;0.45;100.00;98600.16;5022520;28;20441;-52
2022/03/22 07:03:04;;;;;;;9.63;8.60;;;;;;;0.52;100.00;98597.09;5008009;28;20687;-54
2022/03/22 07:05:33;;;;;;;12.63;10.17;;;;;;;0.69;100.00;98600.53;5005858;28;20281;-55
2022/03/22 07:08:03;;;;;;;9.83;8.83;;;;;;;0.69;100.00;98603.16;5013779;28;20687;-52
2022/03/22 07:10:32;;;;;;;10.63;9.63;;;;;;;0.88;100.00;98599.50;4984177;28;20814;-51
2022/03/22 07:13:04;;;;;;;10.47;9.17;;;;;;;0.96;100.00;98599.91;5023926;28;20283;-54
2022/03/22 07:15:35;;;;;;;11.23;10.03;;;;;;;1.08;100.00;98598.34;5020797;28;20746;-54
2022/03/22 07:18:05;;;;;;;10.00;8.70;;;;;;;1.20;100.00;98602.88;5013652;28;20337;-58
2022/03/22 07:20:34;;;;;;;11.50;10.10;;;;;;;1.40;100.00;98601.69;5012860;28;20213;-57
2022/03/22 07:23:03;;;;;;;12.20;10.90;;;;;;;1.64;100.00;98584.63;5016452;28;20204;-51
2022/03/22 07:25:33;;;;;;;11.57;9.47;;;;;;;1.89;100.00;98591.81;4989067;28;20909;-51
2022/03/22 07:28:01;;;;;;;11.50;9.63;;;;;;;2.01;100.00;98596.28;5030419;28;20221;-55
2022/03/22 07:30:30;;;;;;;10.73;9.43;;;;;;;2.93;99.96;98589.69;5021214;28;20258;-48
2022/03/22 07:32:58;;;;;;;11.30;10.20;;;;;;;4.71;76.57;98590.56;5026340;28;20200;-56
2022/03/22 07:35:26;;;;;;;8.80;8.03;;;;;;;6.30;62.92;98591.81;5008238;28;20489;-52
2022/03/22 07:37:59;;;;;;;10.30;9.23;;;;;;;7.60;55.69;98597.06;4999845;28;20310;-53
2022/03/22 07:40:29;;;;;;;9.60;8.70;;;;;;;8.82;49.46;98590.09;5023931;28;20822;-54
2022/03/22 07:42:57;;;;;;;10.47;9.47;;;;;;;9.59;45.49;98589.34;4989130;28;20220;-58
2022/03/22 07:45:26;;;;;;;10.13;9.13;;;;;;;9.99;43.96;98601.47;5019913;28;20261;-55
2022/03/22 07:47:54;;;;;;;9.00;8.20;;;;;;;10.94;41.27;98589.81;5030861;28;20294;-57
2022/03/22 07:53:07;;;;;;;9.50;8.60;;;;;;;8.66;43.43;98593.28;5010986;28;20631;-54
2022/03/22 07:55:38;;;;;;;9.90;8.97;;;;;;;7.81;44.47;98602.31;5012557;28;20216;-55
2022/03/22 07:58:07;;;;;;;9.63;8.63;;;;;;;6.91;48.16;98604.47;4987540;28;20250;-57
2022/03/22 08:00:37;;;;;;;9.67;8.53;;;;;;;6.22;46.81;98601.16;5024782;28;20959;-55
2022/03/22 08:03:09;;;;;;;9.50;8.20;;;;;;;6.03;47.92;98614.94;5023647;28;20512;-55
2022/03/22 08:05:39;;;;;;;8.40;7.70;;;;;;;5.87;49.16;98610.00;5012800;28;20214;-57
2022/03/22 08:08:07;;;;;;;8.73;8.00;;;;;;;5.62;47.96;98608.41;5023075;28;20219;-53
2022/03/22 08:10:57;;;;;;;8.70;7.43;;;;;;;5.80;47.00;98604.38;5011389;28;20226;-54
2022/03/22 08:13:26;;;;;;;8.70;7.90;;;;;;;5.89;46.73;98607.25;4983469;28;20321;-55
2022/03/22 08:15:54;;;;;;;9.77;7.43;;;;;;;5.77;46.76;98603.78;5028319;28;20456;-54
2022/03/22 08:18:23;;;;;;;8.70;7.70;;;;;;;5.89;44.85;98609.88;5021719;28;20232;-54
2022/03/22 08:20:51;;;;;;;7.47;6.77;;;;;;;6.05;44.22;98604.28;5012058;28;20235;-50
2022/03/22 08:23:19;;;;;;;7.50;6.80;;;;;;;6.08;43.61;98604.88;5022983;28;20696;-52
2022/03/22 08:25:50;;;;;;;7.97;7.27;;;;;;;6.28;43.67;98602.50;4997519;28;20762;-53
2022/03/22 08:28:21;;;;;;;7.00;6.37;;;;;;;6.52;43.28;98598.84;4998338;28;20223;-56
2022/03/22 08:30:49;;;;;;;11.17;6.73;;;;;;;6.61;42.58;98595.47;5019252;28;20521;-52
2022/03/22 08:33:18;;;;;;;8.57;7.73;;;;;;;6.79;42.85;98595.75;5017423;28;20200;-51
2022/03/22 08:35:47;;;;;;;7.97;7.17;;;;;;;6.78;41.15;98591.47;5021954;28;20571;-55
2022/03/22 08:38:19;;;;;;;8.10;7.10;;;;;;;7.05;41.43;98592.81;5016305;28;20514;-53
2022/03/22 08:40:47;;;;;;;8.53;7.67;;;;;;;6.98;41.08;98586.38;5000350;28;20212;-57
2022/03/22 08:43:16;;;;;;;7.20;6.50;;;;;;;7.11;40.75;98588.84;5021114;28;20416;-55
2022/03/22 08:45:45;;;;;;;9.30;8.40;;;;;;;6.98;41.47;98572.34;4984828;28;20216;-50
2022/03/22 08:48:14;;;;;;;7.77;6.93;;;;;;;7.20;40.73;98587.25;5021047;28;20406;-53
2022/03/22 08:50:43;;;;;;;10.13;7.93;;;;;;;7.21;41.06;98581.81;5026880;28;20322;-54
2022/03/22 08:53:12;;;;;;;8.40;7.60;;;;;;;7.40;40.77;98582.94;5009618;28;20293;-55
2022/03/22 08:55:45;;;;;;;7.33;6.73;;;;;;;7.67;40.87;98579.75;5021108;28;20212;-55
2022/03/22 08:58:14;;;;;;;7.40;6.80;;;;;;;7.61;40.07;98571.50;5015067;28;20235;-55
2022/03/22 09:00:42;;;;;;;7.40;6.73;;;;;;;7.82;39.24;98571.47;4986913;28;20616;-52
2022/03/22 09:03:12;;;;;;;7.43;6.50;;;;;;;8.07;38.75;98570.19;5021758;28;20827;-49
2022/03/22 09:08:25;;;;;;;7.83;6.57;;;;;;;8.36;38.73;98569.44;5010071;28;20240;-51
2022/03/22 09:10:56;;;;;;;8.97;7.00;;;;;;;8.56;39.18;98573.94;5024624;28;20224;-51
2022/03/22 09:13:28;;;;;;;8.03;6.90;;;;;;;8.71;37.92;98562.00;5013624;28;20298;-48
2022/03/22 09:15:57;;;;;;;7.80;7.10;;;;;;;8.91;36.69;98567.28;4990186;28;20203;-55
2022/03/22 09:18:28;;;;;;;7.70;7.00;;;;;;;8.89;36.21;98563.97;5023404;28;20243;-51
2022/03/22 09:20:56;;;;;;;7.60;6.73;;;;;;;9.00;36.78;98560.34;5022272;28;20733;-54
2022/03/22 09:23:24;;;;;;;7.77;6.97;;;;;;;9.17;36.68;98566.75;5008746;28;20239;-55
2022/03/22 09:25:54;;;;;;;7.77;6.70;;;;;;;8.88;37.28;98557.81;5024610;28;20206;-53
2022/03/22 09:28:22;;;;;;;7.40;6.70;;;;;;;9.00;36.41;98557.72;5010954;28;20236;-51
2022/03/22 09:30:50;;;;;;;8.17;6.67;;;;;;;9.41;36.14;98563.63;5024096;28;20289;-53
2022/03/22 09:33:18;;;;;;;8.90;7.00;;;;;;;9.54;36.85;98555.41;4983309;28;20708;-51
2022/03/22 09:35:49;;;;;;;7.43;6.73;;;;;;;9.59;35.17;98554.94;5020815;28;20230;-53
2022/03/22 09:38:17;;;;;;;7.67;6.93;;;;;;;9.54;35.74;98558.03;5009330;28;20914;-53
2022/03/22 09:40:45;;;;;;;10.43;6.97;;;;;;;9.53;36.83;98536.03;5026686;28;20299;-53
2022/03/22 09:43:13;;;;;;;8.30;7.00;;;;;;;9.80;36.75;98547.63;5010418;28;20390;-54
2022/03/22 09:45:43;;;;;;;8.03;6.87;;;;;;;9.94;37.33;98548.97;5023214;28;20211;-54
2022/03/22 09:48:16;;;;;;;7.80;7.10;;;;;;;10.05;36.20;98547.97;4978804;28;20310;-50
2022/03/22 09:53:34;;;;;;;6.47;5.97;;;;;;;10.16;35.64;98531.00;5011142;28;20243;-54
2022/03/22 09:56:02;;;;;;;7.40;6.70;;;;;;;10.15;34.21;98529.34;5020432;28;20919;-51
2022/03/22 09:58:34;;;;;;;7.57;6.87;;;;;;;10.21;35.50;98525.28;5010556;28;20791;-54
2022/03/22 10:01:02;;;;;;;7.00;6.50;;;;;;;10.24;33.98;98532.94;5021371;28;20508;-55
2022/03/22 10:03:31;;;;;;;8.10;7.30;;;;;;;10.27;33.49;98525.53;4986950;28;20212;-57
2022/03/22 10:06:00;;;;;;;6.40;5.90;;;;;;;10.32;33.96;98532.19;5019418;28;20861;-56
2022/03/22 10:08:28;;;;;;;6.60;6.00;;;;;;;10.57;32.93;98531.47;5005726;28;20239;-54
2022/03/22 10:11:00;;;;;;;7.33;6.63;;;;;;;10.51;33.82;98528.63;5022249;28;20243;-55
2022/03/22 10:13:29;;;;;;;17.50;7.27;;;;;;;10.85;33.95;98520.81;5023439;28;20234;-54
2022/03/22 10:16:02;;;;;;;6.70;6.10;;;;;;;10.78;33.75;98524.19;5005685;28;20210;-56
2022/03/22 10:18:34;;;;;;;6.13;5.63;;;;;;;10.90;33.08;98519.50;5028995;28;20238;-53
2022/03/22 10:21:03;;;;;;;6.50;5.90;;;;;;;10.75;31.89;98509.44;4980647;28;20426;-57
2022/03/22 10:23:32;;;;;;;6.53;5.83;;;;;;;11.19;31.87;98508.66;5010680;28;20208;-53
2022/03/22 10:26:07;;;;;;;6.00;5.37;;;;;;;11.30;30.79;98507.53;5021102;28;20555;-54
2022/03/22 10:28:36;;;;;;;6.10;5.60;;;;;;;11.32;30.10;98504.72;5023886;28;20729;-53
2022/03/22 10:31:05;;;;;;;5.90;5.33;;;;;;;11.57;30.72;98500.41;5008347;28;20927;-54
2022/03/22 10:33:33;;;;;;;5.40;5.00;;;;;;;11.52;29.63;98505.34;5022850;28;20290;-52
2022/03/22 10:36:12;;;;;;;5.80;5.23;;;;;;;11.47;28.46;98497.84;4976378;28;20437;-56
2022/03/22 10:38:40;;;;;;;5.40;5.00;;;;;;;11.70;30.31;98498.13;5023135;28;20250;-53
2022/03/22 10:41:10;;;;;;;5.73;5.33;;;;;;;11.38;30.66;98498.78;5006181;28;20290;-57
2022/03/22 10:43:39;;;;;;;5.30;4.90;;;;;;;11.38;30.09;98490.84;5023552;28;20868;-55
2022/03/22 10:46:12;;;;;;;6.40;5.40;;;;;;;11.48;30.58;98499.50;5001262;28;20760;-51
2022/03/22 10:48:42;;;;;;;5.77;5.33;;;;;;;11.54;29.50;98490.09;5019008;28;20220;-54
2022/03/22 10:51:10;;;;;;;5.90;5.20;;;;;;;11.61;31.17;98491.13;4992793;28;20286;-53
2022/03/22 10:53:38;;;;;;;5.90;5.30;;;;;;;11.81;29.47;98489.06;5023835;28;20273;-55
2022/03/22 10:56:06;;;;;;;5.90;5.30;;;;;;;12.13;30.32;98492.84;5001415;28;20891;-52
2022/03/22 10:58:36;;;;;;;7.00;5.80;;;;;;;12.05;30.41;98486.69;5024118;28;20281;-54
2022/03/22 11:01:06;;;;;;;6.27;5.67;;;;;;;12.11;29.63;98480.72;5006725;28;20733;-54
2022/03/22 11:03:35;;;;;;;7.63;5.97;;;;;;;12.15;30.37;98487.38;5026997;28;20196;-55
2022/03/22 11:06:04;;;;;;;6.30;5.70;;;;;;;12.11;31.01;98475.41;4981871;28;20282;-55
2022/03/22 11:08:33;;;;;;;6.00;5.50;;;;;;;12.32;29.51;98474.13;5024091;28;20779;-55
2022/03/22 11:11:02;;;;;;;5.63;5.13;;;;;;;12.32;29.53;98477.63;5004270;28;20923;-56
2022/03/22 11:13:30;;;;;;;7.17;6.47;;;;;;;12.25;30.00;98474.78;5024507;28;20227;-50
2022/03/22 11:16:00;;;;;;;5.73;5.27;;;;;;;11.82;28.36;98471.31;5008224;28;20207;-53
2022/03/22 11:18:29;;;;;;;6.27;5.77;;;;;;;12.10;30.56;98465.75;5022128;28;20335;-55
2022/03/22 11:20:59;;;;;;;6.03;5.53;;;;;;;12.39;27.94;98464.50;4981150;28;20208;-51
2022/03/22 11:23:28;;;;;;;6.93;5.47;;;;;;;12.58;27.32;98466.88;5018614;28;20219;-50
2022/03/22 11:26:09;;;;;;;6.60;5.37;;;;;;;12.58;28.11;98458.88;5006293;28;20625;-54
2022/03/22 11:28:38;;;;;;;6.17;5.43;;;;;;;12.74;29.01;98463.38;5024324;28;20584;-50
2022/03/22 11:31:10;;;;;;;7.07;5.30;;;;;;;12.80;29.54;98461.03;5007355;28;20453;-52
2022/03/22 11:36:26;;;;;;;6.47;5.27;;;;;;;12.95;28.93;98462.03;4980754;28;20222;-53
2022/03/22 11:38:55;;;;;;;5.17;4.80;;;;;;;12.98;28.30;98459.03;5019807;28;20695;-54
2022/03/22 11:44:21;;;;;;;5.53;5.13;;;;;;;13.02;27.93;98460.34;5022673;28;20211;-55
2022/03/22 11:47:02;;;;;;;5.47;4.93;;;;;;;13.02;29.97;98452.38;5006941;28;20895;-55
2022/03/22 11:49:30;;;;;;;6.13;5.50;;;;;;;13.44;30.45;98453.16;5023809;28;20223;-50
2022/03/22 11:52:00;;;;;;;5.57;4.93;;;;;;;13.36;29.56;98441.66;4979272;28;20425;-54
2022/03/22 11:54:29;;;;;;;10.63;8.57;;;;;;;13.42;28.18;98441.84;5019252;28;20311;-57
2022/03/22 11:56:59;;;;;;;15.00;6.40;;;;;;;13.22;28.64;98437.84;5002898;28;20254;-54
2022/03/22 11:59:30;;;;;;;10.80;6.13;;;;;;;13.27;29.70;98436.34;5026604;28;20506;-54
2022/03/22 12:02:05;;;;;;;5.57;5.10;;;;;;;13.36;29.23;98441.66;5008511;28;20226;-52
2022/03/22 12:04:38;;;;;;;14.27;5.63;;;;;;;13.48;28.71;98432.34;5027197;28;20200;-54
2022/03/22 12:07:07;;;;;;;8.83;4.90;;;;;;;13.48;29.29;98434.16;4987262;28;20695;-55